sensor_id;sensor_type;location;lat;lon;timestamp;pressure;altitude;pressure_sealevel;temperature;humidity
58967;BME280;44744;51.894;5.080;2023-05-11T00:00:07;101570.55;;;13.24;89.82
58967;BME280;44744;51.894;5.080;2023-05-11T00:01:08;101568.61;;;13.23;89.67
58967;BME280;44744;51.894;5.080;2023-05-11T00:02:08;101569.86;;;13.23;89.71
58967;BME280;44744;51.894;5.080;2023-05-11T00:03:09;101567.58;;;13.23;89.71
58967;BME280;44744;51.894;5.080;2023-05-11T00:04:09;101570.91;;;13.24;89.75
58967;BME280;44744;51.894;5.080;2023-05-11T00:05:09;101570.75;;;13.24;89.72
58967;BME280;44744;51.894;5.080;2023-05-11T00:06:10;101569.66;;;13.24;89.62
58967;BME280;44744;51.894;5.080;2023-05-11T00:07:10;101574.48;;;13.23;89.73
58967;BME280;44744;51.894;5.080;2023-05-11T00:08:10;101568.98;;;13.23;89.53
58967;BME280;44744;51.894;5.080;2023-05-11T00:09:10;101572.02;;;13.23;89.40
58967;BME280;44744;51.894;5.080;2023-05-11T00:10:11;101572.57;;;13.23;89.61
58967;BME280;44744;51.894;5.080;2023-05-11T00:11:11;101571.71;;;13.22;89.42
58967;BME280;44744;51.894;5.080;2023-05-11T00:12:11;101567.52;;;13.21;89.48
58967;BME280;44744;51.894;5.080;2023-05-11T00:13:12;101570.20;;;13.20;89.62
58967;BME280;44744;51.894;5.080;2023-05-11T00:14:12;101569.73;;;13.19;89.50
58967;BME280;44744;51.894;5.080;2023-05-11T00:15:12;101571.39;;;13.18;89.37
58967;BME280;44744;51.894;5.080;2023-05-11T00:16:12;101569.11;;;13.18;89.50
58967;BME280;44744;51.894;5.080;2023-05-11T00:17:13;101568.23;;;13.18;89.38
58967;BME280;44744;51.894;5.080;2023-05-11T00:18:13;101567.73;;;13.17;89.59
58967;BME280;44744;51.894;5.080;2023-05-11T00:19:13;101565.78;;;13.17;89.48
58967;BME280;44744;51.894;5.080;2023-05-11T00:20:13;101565.27;;;13.16;89.57
58967;BME280;44744;51.894;5.080;2023-05-11T00:21:14;101563.33;;;13.16;89.65
58967;BME280;44744;51.894;5.080;2023-05-11T00:22:14;101562.64;;;13.16;89.56
58967;BME280;44744;51.894;5.080;2023-05-11T00:23:14;101566.72;;;13.16;89.68
58967;BME280;44744;51.894;5.080;2023-05-11T00:24:15;101564.90;;;13.17;89.70
58967;BME280;44744;51.894;5.080;2023-05-11T00:25:15;101564.73;;;13.16;89.76
58967;BME280;44744;51.894;5.080;2023-05-11T00:26:15;101563.34;;;13.16;89.54
58967;BME280;44744;51.894;5.080;2023-05-11T00:27:16;101562.27;;;13.16;89.58
58967;BME280;44744;51.894;5.080;2023-05-11T00:28:16;101559.82;;;13.15;89.64
58967;BME280;44744;51.894;5.080;2023-05-11T00:29:16;101559.90;;;13.13;89.64
58967;BME280;44744;51.894;5.080;2023-05-11T00:30:17;101557.34;;;13.12;89.36
58967;BME280;44744;51.894;5.080;2023-05-11T00:31:17;101559.05;;;13.10;89.36
58967;BME280;44744;51.894;5.080;2023-05-11T00:32:17;101559.35;;;13.07;89.38
58967;BME280;44744;51.894;5.080;2023-05-11T00:33:18;101557.50;;;13.06;89.38
58967;BME280;44744;51.894;5.080;2023-05-11T00:34:18;101557.42;;;13.04;89.53
58967;BME280;44744;51.894;5.080;2023-05-11T00:35:19;101556.58;;;13.03;89.47
58967;BME280;44744;51.894;5.080;2023-05-11T00:36:19;101554.88;;;13.02;89.53
58967;BME280;44744;51.894;5.080;2023-05-11T00:37:19;101558.08;;;13.01;89.64
58967;BME280;44744;51.894;5.080;2023-05-11T00:38:20;101553.48;;;13.01;89.69
58967;BME280;44744;51.894;5.080;2023-05-11T00:39:20;101551.92;;;13.00;89.81
58967;BME280;44744;51.894;5.080;2023-05-11T00:40:20;101550.70;;;13.00;89.78
58967;BME280;44744;51.894;5.080;2023-05-11T00:41:21;101549.45;;;13.00;89.76
58967;BME280;44744;51.894;5.080;2023-05-11T00:42:21;101550.73;;;12.99;89.86
58967;BME280;44744;51.894;5.080;2023-05-11T00:43:21;101552.73;;;12.98;89.67
58967;BME280;44744;51.894;5.080;2023-05-11T00:44:21;101550.27;;;12.98;89.81
58967;BME280;44744;51.894;5.080;2023-05-11T00:45:25;101549.39;;;12.98;89.73
58967;BME280;44744;51.894;5.080;2023-05-11T00:46:29;101547.84;;;12.97;89.78
58967;BME280;44744;51.894;5.080;2023-05-11T00:47:30;101550.66;;;12.97;89.81
58967;BME280;44744;51.894;5.080;2023-05-11T00:48:30;101549.42;;;12.97;89.82
58967;BME280;44744;51.894;5.080;2023-05-11T00:49:30;101551.73;;;12.97;89.97
58967;BME280;44744;51.894;5.080;2023-05-11T00:50:31;101552.02;;;12.98;89.90
58967;BME280;44744;51.894;5.080;2023-05-11T00:51:31;101551.85;;;12.98;89.95
58967;BME280;44744;51.894;5.080;2023-05-11T00:52:32;101548.61;;;12.99;90.21
58967;BME280;44744;51.894;5.080;2023-05-11T00:53:32;101553.02;;;13.00;90.14
58967;BME280;44744;51.894;5.080;2023-05-11T00:54:34;101554.61;;;13.00;90.10
58967;BME280;44744;51.894;5.080;2023-05-11T00:55:35;101553.00;;;13.00;90.03
58967;BME280;44744;51.894;5.080;2023-05-11T00:56:35;101550.48;;;13.01;90.09
58967;BME280;44744;51.894;5.080;2023-05-11T00:57:37;101553.12;;;13.02;90.18
58967;BME280;44744;51.894;5.080;2023-05-11T00:58:38;101552.38;;;13.02;90.10
58967;BME280;44744;51.894;5.080;2023-05-11T00:59:38;101549.39;;;13.02;90.19
58967;BME280;44744;51.894;5.080;2023-05-11T01:00:38;101548.64;;;13.02;90.12
58967;BME280;44744;51.894;5.080;2023-05-11T01:01:39;101547.05;;;13.02;90.11
58967;BME280;44744;51.894;5.080;2023-05-11T01:02:39;101546.00;;;13.02;90.01
58967;BME280;44744;51.894;5.080;2023-05-11T01:03:40;101543.34;;;13.02;90.12
58967;BME280;44744;51.894;5.080;2023-05-11T01:04:40;101540.49;;;13.02;90.09
58967;BME280;44744;51.894;5.080;2023-05-11T01:05:54;101542.10;;;13.02;89.90
58967;BME280;44744;51.894;5.080;2023-05-11T01:08:27;101542.02;;;13.00;90.07
58967;BME280;44744;51.894;5.080;2023-05-11T01:12:25;101544.88;;;12.96;89.87
58967;BME280;44744;51.894;5.080;2023-05-11T01:13:54;101545.86;;;12.94;90.06
58967;BME280;44744;51.894;5.080;2023-05-11T01:16:00;101545.88;;;12.94;90.02
58967;BME280;44744;51.894;5.080;2023-05-11T01:16:43;101544.24;;;12.91;90.09
58967;BME280;44744;51.894;5.080;2023-05-11T01:17:52;101545.63;;;12.92;90.22
58967;BME280;44744;51.894;5.080;2023-05-11T01:19:01;101546.02;;;12.91;90.23
58967;BME280;44744;51.894;5.080;2023-05-11T01:20:08;101547.09;;;12.91;90.13
58967;BME280;44744;51.894;5.080;2023-05-11T01:21:10;101544.29;;;12.90;90.15
58967;BME280;44744;51.894;5.080;2023-05-11T01:22:52;101544.48;;;12.90;90.15
58967;BME280;44744;51.894;5.080;2023-05-11T01:28:25;101544.38;;;12.86;90.22
58967;BME280;44744;51.894;5.080;2023-05-11T01:31:09;101547.82;;;12.84;90.14
58967;BME280;44744;51.894;5.080;2023-05-11T01:32:22;101547.91;;;12.82;90.16
58967;BME280;44744;51.894;5.080;2023-05-11T01:33:34;101548.99;;;12.82;90.22
58967;BME280;44744;51.894;5.080;2023-05-11T01:34:38;101554.91;;;12.81;90.16
58967;BME280;44744;51.894;5.080;2023-05-11T01:35:47;101550.20;;;12.80;89.92
58967;BME280;44744;51.894;5.080;2023-05-11T01:37:09;101550.42;;;12.79;90.03
58967;BME280;44744;51.894;5.080;2023-05-11T01:38:12;101554.01;;;12.78;90.18
58967;BME280;44744;51.894;5.080;2023-05-11T01:39:15;101552.48;;;12.76;90.23
58967;BME280;44744;51.894;5.080;2023-05-11T01:40:22;101551.43;;;12.76;90.04
58967;BME280;44744;51.894;5.080;2023-05-11T01:41:24;101551.59;;;12.76;90.29
58967;BME280;44744;51.894;5.080;2023-05-11T01:42:41;101549.98;;;12.77;90.25
58967;BME280;44744;51.894;5.080;2023-05-11T01:43:46;101552.73;;;12.75;90.25
58967;BME280;44744;51.894;5.080;2023-05-11T01:44:50;101554.88;;;12.75;90.12
58967;BME280;44744;51.894;5.080;2023-05-11T01:45:54;101554.58;;;12.74;90.08
58967;BME280;44744;51.894;5.080;2023-05-11T01:46:59;101553.41;;;12.72;90.09
58967;BME280;44744;51.894;5.080;2023-05-11T01:48:07;101558.75;;;12.72;90.05
58967;BME280;44744;51.894;5.080;2023-05-11T01:49:09;101558.84;;;12.71;90.09
58967;BME280;44744;51.894;5.080;2023-05-11T01:50:11;101562.04;;;12.70;90.21
58967;BME280;44744;51.894;5.080;2023-05-11T01:51:13;101562.61;;;12.70;90.06
58967;BME280;44744;51.894;5.080;2023-05-11T01:52:15;101565.83;;;12.69;90.12
58967;BME280;44744;51.894;5.080;2023-05-11T01:53:17;101567.63;;;12.69;90.01
58967;BME280;44744;51.894;5.080;2023-05-11T01:54:22;101568.55;;;12.68;89.99
58967;BME280;44744;51.894;5.080;2023-05-11T01:55:24;101567.36;;;12.67;90.15
58967;BME280;44744;51.894;5.080;2023-05-11T01:56:25;101569.85;;;12.67;90.30
58967;BME280;44744;51.894;5.080;2023-05-11T01:57:26;101570.23;;;12.67;90.19
58967;BME280;44744;51.894;5.080;2023-05-11T01:58:29;101574.45;;;12.67;90.32
58967;BME280;44744;51.894;5.080;2023-05-11T01:59:30;101573.73;;;12.67;90.25
58967;BME280;44744;51.894;5.080;2023-05-11T02:00:32;101573.73;;;12.68;90.32
58967;BME280;44744;51.894;5.080;2023-05-11T02:01:33;101575.33;;;12.67;90.46
58967;BME280;44744;51.894;5.080;2023-05-11T02:02:35;101573.70;;;12.68;90.43
58967;BME280;44744;51.894;5.080;2023-05-11T02:03:36;101575.63;;;12.68;90.52
58967;BME280;44744;51.894;5.080;2023-05-11T02:04:39;101576.49;;;12.69;90.29
58967;BME280;44744;51.894;5.080;2023-05-11T02:05:41;101574.00;;;12.69;90.48
58967;BME280;44744;51.894;5.080;2023-05-11T02:06:43;101575.21;;;12.70;90.47
58967;BME280;44744;51.894;5.080;2023-05-11T02:07:47;101575.55;;;12.70;90.45
58967;BME280;44744;51.894;5.080;2023-05-11T02:08:49;101578.06;;;12.69;90.36
58967;BME280;44744;51.894;5.080;2023-05-11T02:09:50;101576.15;;;12.68;90.46
58967;BME280;44744;51.894;5.080;2023-05-11T02:10:53;101576.52;;;12.68;90.51
58967;BME280;44744;51.894;5.080;2023-05-11T02:11:55;101577.63;;;12.67;90.62
58967;BME280;44744;51.894;5.080;2023-05-11T02:12:57;101577.20;;;12.69;90.58
58967;BME280;44744;51.894;5.080;2023-05-11T02:13:59;101576.36;;;12.68;90.58
58967;BME280;44744;51.894;5.080;2023-05-11T02:15:02;101575.64;;;12.68;90.61
58967;BME280;44744;51.894;5.080;2023-05-11T02:16:05;101579.33;;;12.69;90.55
58967;BME280;44744;51.894;5.080;2023-05-11T02:17:07;101575.98;;;12.68;90.55
58967;BME280;44744;51.894;5.080;2023-05-11T02:18:11;101578.45;;;12.69;90.52
58967;BME280;44744;51.894;5.080;2023-05-11T02:19:12;101580.79;;;12.68;90.68
58967;BME280;44744;51.894;5.080;2023-05-11T02:20:14;101579.18;;;12.68;90.76
58967;BME280;44744;51.894;5.080;2023-05-11T02:21:15;101579.21;;;12.68;90.66
58967;BME280;44744;51.894;5.080;2023-05-11T02:22:18;101581.73;;;12.67;90.84
58967;BME280;44744;51.894;5.080;2023-05-11T02:23:20;101582.46;;;12.67;90.67
58967;BME280;44744;51.894;5.080;2023-05-11T02:24:23;101581.05;;;12.66;90.78
58967;BME280;44744;51.894;5.080;2023-05-11T02:25:24;101583.20;;;12.66;90.86
58967;BME280;44744;51.894;5.080;2023-05-11T02:26:25;101580.90;;;12.66;90.86
58967;BME280;44744;51.894;5.080;2023-05-11T02:27:26;101583.21;;;12.66;90.81
58967;BME280;44744;51.894;5.080;2023-05-11T02:28:27;101582.13;;;12.66;90.79
58967;BME280;44744;51.894;5.080;2023-05-11T02:29:27;101584.48;;;12.65;90.79
58967;BME280;44744;51.894;5.080;2023-05-11T02:30:30;101582.54;;;12.65;90.91
58967;BME280;44744;51.894;5.080;2023-05-11T02:31:45;101582.02;;;12.65;90.74
58967;BME280;44744;51.894;5.080;2023-05-11T02:32:50;101584.89;;;12.64;91.03
58967;BME280;44744;51.894;5.080;2023-05-11T02:33:55;101579.58;;;12.64;91.18
58967;BME280;44744;51.894;5.080;2023-05-11T02:35:06;101585.73;;;12.65;91.14
58967;BME280;44744;51.894;5.080;2023-05-11T02:36:10;101582.33;;;12.66;91.20
58967;BME280;44744;51.894;5.080;2023-05-11T02:37:18;101579.64;;;12.67;91.16
58967;BME280;44744;51.894;5.080;2023-05-11T02:38:19;101581.20;;;12.67;91.10
58967;BME280;44744;51.894;5.080;2023-05-11T02:39:20;101580.16;;;12.67;91.16
58967;BME280;44744;51.894;5.080;2023-05-11T02:40:33;101579.19;;;12.68;91.31
58967;BME280;44744;51.894;5.080;2023-05-11T02:41:42;101577.79;;;12.68;91.25
58967;BME280;44744;51.894;5.080;2023-05-11T02:42:44;101580.25;;;12.68;91.19
58967;BME280;44744;51.894;5.080;2023-05-11T02:43:50;101579.03;;;12.68;91.24
58967;BME280;44744;51.894;5.080;2023-05-11T02:44:57;101579.00;;;12.68;91.36
58967;BME280;44744;51.894;5.080;2023-05-11T02:46:02;101576.69;;;12.68;91.30
58967;BME280;44744;51.894;5.080;2023-05-11T02:47:03;101581.83;;;12.69;91.39
58967;BME280;44744;51.894;5.080;2023-05-11T02:48:20;101579.84;;;12.69;91.37
58967;BME280;44744;51.894;5.080;2023-05-11T02:49:22;101581.48;;;12.68;91.17
58967;BME280;44744;51.894;5.080;2023-05-11T02:50:26;101583.70;;;12.67;91.33
58967;BME280;44744;51.894;5.080;2023-05-11T02:51:31;101578.38;;;12.67;91.42
58967;BME280;44744;51.894;5.080;2023-05-11T02:52:33;101579.56;;;12.68;91.37
58967;BME280;44744;51.894;5.080;2023-05-11T02:53:36;101579.71;;;12.68;91.37
58967;BME280;44744;51.894;5.080;2023-05-11T02:54:39;101577.02;;;12.69;91.40
58967;BME280;44744;51.894;5.080;2023-05-11T02:55:41;101576.91;;;12.68;91.24
58967;BME280;44744;51.894;5.080;2023-05-11T02:56:41;101574.45;;;12.67;91.29
58967;BME280;44744;51.894;5.080;2023-05-11T02:57:43;101575.19;;;12.67;91.42
58967;BME280;44744;51.894;5.080;2023-05-11T02:58:43;101574.17;;;12.66;91.40
58967;BME280;44744;51.894;5.080;2023-05-11T02:59:44;101571.65;;;12.66;91.55
58967;BME280;44744;51.894;5.080;2023-05-11T03:00:45;101567.41;;;12.66;91.57
58967;BME280;44744;51.894;5.080;2023-05-11T03:01:46;101567.56;;;12.66;91.51
58967;BME280;44744;51.894;5.080;2023-05-11T03:02:47;101563.30;;;12.67;91.38
58967;BME280;44744;51.894;5.080;2023-05-11T03:03:47;101571.85;;;12.66;91.35
58967;BME280;44744;51.894;5.080;2023-05-11T03:04:47;101569.52;;;12.67;91.47
58967;BME280;44744;51.894;5.080;2023-05-11T03:05:48;101569.14;;;12.67;91.54
58967;BME280;44744;51.894;5.080;2023-05-11T03:06:48;101568.21;;;12.68;91.39
58967;BME280;44744;51.894;5.080;2023-05-11T03:07:49;101570.55;;;12.67;91.34
58967;BME280;44744;51.894;5.080;2023-05-11T03:08:50;101571.64;;;12.67;91.49
58967;BME280;44744;51.894;5.080;2023-05-11T03:09:51;101569.39;;;12.65;91.28
58967;BME280;44744;51.894;5.080;2023-05-11T03:10:52;101570.35;;;12.64;91.45
58967;BME280;44744;51.894;5.080;2023-05-11T03:11:53;101572.29;;;12.64;91.44
58967;BME280;44744;51.894;5.080;2023-05-11T03:12:55;101569.79;;;12.64;91.44
58967;BME280;44744;51.894;5.080;2023-05-11T03:13:56;101568.59;;;12.64;91.43
58967;BME280;44744;51.894;5.080;2023-05-11T03:15:01;101568.56;;;12.64;91.47
58967;BME280;44744;51.894;5.080;2023-05-11T03:16:03;101564.17;;;12.62;91.54
58967;BME280;44744;51.894;5.080;2023-05-11T03:17:05;101565.95;;;12.63;91.53
58967;BME280;44744;51.894;5.080;2023-05-11T03:18:06;101567.36;;;12.63;91.36
58967;BME280;44744;51.894;5.080;2023-05-11T03:19:08;101570.52;;;12.64;91.45
58967;BME280;44744;51.894;5.080;2023-05-11T03:20:10;101568.02;;;12.64;91.56
58967;BME280;44744;51.894;5.080;2023-05-11T03:21:10;101568.02;;;12.64;91.59
58967;BME280;44744;51.894;5.080;2023-05-11T03:22:12;101568.72;;;12.64;91.75
58967;BME280;44744;51.894;5.080;2023-05-11T03:23:14;101565.34;;;12.65;91.65
58967;BME280;44744;51.894;5.080;2023-05-11T03:24:16;101564.64;;;12.64;91.74
58967;BME280;44744;51.894;5.080;2023-05-11T03:25:19;101563.41;;;12.64;91.53
58967;BME280;44744;51.894;5.080;2023-05-11T03:26:19;101560.91;;;12.64;91.50
58967;BME280;44744;51.894;5.080;2023-05-11T03:27:21;101560.56;;;12.64;91.60
58967;BME280;44744;51.894;5.080;2023-05-11T03:28:24;101560.58;;;12.64;91.46
58967;BME280;44744;51.894;5.080;2023-05-11T03:29:26;101557.54;;;12.64;91.71
58967;BME280;44744;51.894;5.080;2023-05-11T03:30:27;101559.44;;;12.66;91.89
58967;BME280;44744;51.894;5.080;2023-05-11T03:31:28;101558.38;;;12.66;91.73
58967;BME280;44744;51.894;5.080;2023-05-11T03:32:28;101561.92;;;12.66;91.69
58967;BME280;44744;51.894;5.080;2023-05-11T03:33:29;101560.35;;;12.65;91.53
58967;BME280;44744;51.894;5.080;2023-05-11T03:34:29;101558.04;;;12.65;91.56
58967;BME280;44744;51.894;5.080;2023-05-11T03:35:36;101557.73;;;12.65;91.73
58967;BME280;44744;51.894;5.080;2023-05-11T03:36:41;101554.38;;;12.64;91.51
58967;BME280;44744;51.894;5.080;2023-05-11T03:37:44;101557.92;;;12.64;91.70
58967;BME280;44744;51.894;5.080;2023-05-11T03:38:47;101553.88;;;12.63;91.74
58967;BME280;44744;51.894;5.080;2023-05-11T03:39:52;101555.14;;;12.63;91.67
58967;BME280;44744;51.894;5.080;2023-05-11T03:40:54;101556.04;;;12.62;91.62
58967;BME280;44744;51.894;5.080;2023-05-11T03:41:58;101558.04;;;12.62;91.64
58967;BME280;44744;51.894;5.080;2023-05-11T03:43:03;101556.83;;;12.61;91.58
58967;BME280;44744;51.894;5.080;2023-05-11T03:44:05;101559.52;;;12.61;91.55
58967;BME280;44744;51.894;5.080;2023-05-11T03:45:06;101557.91;;;12.61;91.71
58967;BME280;44744;51.894;5.080;2023-05-11T03:46:10;101556.11;;;12.58;91.79
58967;BME280;44744;51.894;5.080;2023-05-11T03:47:13;101557.21;;;12.57;91.80
58967;BME280;44744;51.894;5.080;2023-05-11T03:48:15;101555.61;;;12.57;91.65
58967;BME280;44744;51.894;5.080;2023-05-11T03:49:18;101554.23;;;12.56;91.68
58967;BME280;44744;51.894;5.080;2023-05-11T03:50:18;101555.09;;;12.57;91.58
58967;BME280;44744;51.894;5.080;2023-05-11T03:51:20;101552.64;;;12.56;91.64
58967;BME280;44744;51.894;5.080;2023-05-11T03:52:21;101556.55;;;12.56;91.83
58967;BME280;44744;51.894;5.080;2023-05-11T03:53:22;101553.55;;;12.56;91.71
58967;BME280;44744;51.894;5.080;2023-05-11T03:54:22;101550.74;;;12.55;91.71
58967;BME280;44744;51.894;5.080;2023-05-11T03:55:23;101550.62;;;12.54;91.66
58967;BME280;44744;51.894;5.080;2023-05-11T03:56:23;101549.60;;;12.53;91.43
58967;BME280;44744;51.894;5.080;2023-05-11T03:57:24;101545.00;;;12.53;91.62
58967;BME280;44744;51.894;5.080;2023-05-11T03:58:25;101543.09;;;12.53;91.76
58967;BME280;44744;51.894;5.080;2023-05-11T03:59:25;101542.27;;;12.51;91.68
58967;BME280;44744;51.894;5.080;2023-05-11T04:00:26;101540.35;;;12.51;91.57
58967;BME280;44744;51.894;5.080;2023-05-11T04:01:27;101543.76;;;12.50;91.52
58967;BME280;44744;51.894;5.080;2023-05-11T04:02:27;101544.30;;;12.50;91.58
58967;BME280;44744;51.894;5.080;2023-05-11T04:03:52;101543.11;;;12.49;91.68
58967;BME280;44744;51.894;5.080;2023-05-11T04:04:53;101546.89;;;12.48;91.61
58967;BME280;44744;51.894;5.080;2023-05-11T04:05:53;101544.25;;;12.47;91.89
58967;BME280;44744;51.894;5.080;2023-05-11T04:06:53;101545.31;;;12.47;91.69
58967;BME280;44744;51.894;5.080;2023-05-11T04:07:54;101545.52;;;12.46;91.57
58967;BME280;44744;51.894;5.080;2023-05-11T04:08:54;101546.63;;;12.46;91.50
58967;BME280;44744;51.894;5.080;2023-05-11T04:09:57;101546.67;;;12.45;91.47
58967;BME280;44744;51.894;5.080;2023-05-11T04:10:57;101545.51;;;12.43;91.65
58967;BME280;44744;51.894;5.080;2023-05-11T04:11:58;101547.69;;;12.43;91.75
58967;BME280;44744;51.894;5.080;2023-05-11T04:12:58;101546.61;;;12.43;91.68
58967;BME280;44744;51.894;5.080;2023-05-11T04:13:59;101547.33;;;12.42;91.71
58967;BME280;44744;51.894;5.080;2023-05-11T04:14:59;101546.61;;;12.43;91.71
58967;BME280;44744;51.894;5.080;2023-05-11T04:15:59;101546.95;;;12.43;91.81
58967;BME280;44744;51.894;5.080;2023-05-11T04:17:00;101547.70;;;12.42;91.82
58967;BME280;44744;51.894;5.080;2023-05-11T04:18:00;101545.92;;;12.42;91.79
58967;BME280;44744;51.894;5.080;2023-05-11T04:19:00;101548.61;;;12.42;91.85
58967;BME280;44744;51.894;5.080;2023-05-11T04:20:01;101545.27;;;12.41;91.78
58967;BME280;44744;51.894;5.080;2023-05-11T04:21:01;101549.55;;;12.41;91.92
58967;BME280;44744;51.894;5.080;2023-05-11T04:22:04;101551.48;;;12.41;91.72
58967;BME280;44744;51.894;5.080;2023-05-11T04:23:23;101552.90;;;12.41;91.97
58967;BME280;44744;51.894;5.080;2023-05-11T04:24:23;101554.54;;;12.40;91.88
58967;BME280;44744;51.894;5.080;2023-05-11T04:25:23;101556.70;;;12.39;91.98
58967;BME280;44744;51.894;5.080;2023-05-11T04:26:24;101558.63;;;12.40;91.94
58967;BME280;44744;51.894;5.080;2023-05-11T04:27:24;101559.02;;;12.39;91.99
58967;BME280;44744;51.894;5.080;2023-05-11T04:28:24;101561.50;;;12.39;92.03
58967;BME280;44744;51.894;5.080;2023-05-11T04:29:25;101562.02;;;12.40;92.19
58967;BME280;44744;51.894;5.080;2023-05-11T04:30:25;101561.48;;;12.40;92.26
58967;BME280;44744;51.894;5.080;2023-05-11T04:31:25;101565.88;;;12.40;92.29
58967;BME280;44744;51.894;5.080;2023-05-11T04:32:26;101567.30;;;12.40;92.42
58967;BME280;44744;51.894;5.080;2023-05-11T04:33:26;101566.71;;;12.41;92.51
58967;BME280;44744;51.894;5.080;2023-05-11T04:34:26;101566.16;;;12.42;92.37
58967;BME280;44744;51.894;5.080;2023-05-11T04:35:27;101570.56;;;12.43;92.51
58967;BME280;44744;51.894;5.080;2023-05-11T04:36:27;101568.80;;;12.42;92.55
58967;BME280;44744;51.894;5.080;2023-05-11T04:37:27;101570.77;;;12.42;92.40
58967;BME280;44744;51.894;5.080;2023-05-11T04:38:27;101568.98;;;12.42;92.47
58967;BME280;44744;51.894;5.080;2023-05-11T04:39:28;101568.44;;;12.42;92.67
58967;BME280;44744;51.894;5.080;2023-05-11T04:40:28;101570.88;;;12.43;92.58
58967;BME280;44744;51.894;5.080;2023-05-11T04:41:28;101571.52;;;12.44;92.77
58967;BME280;44744;51.894;5.080;2023-05-11T04:42:29;101572.71;;;12.46;92.73
58967;BME280;44744;51.894;5.080;2023-05-11T04:43:29;101572.18;;;12.45;92.67
58967;BME280;44744;51.894;5.080;2023-05-11T04:44:29;101575.18;;;12.46;92.77
58967;BME280;44744;51.894;5.080;2023-05-11T04:45:30;101572.64;;;12.47;92.82
58967;BME280;44744;51.894;5.080;2023-05-11T04:46:30;101574.42;;;12.47;92.85
58967;BME280;44744;51.894;5.080;2023-05-11T04:47:30;101574.21;;;12.48;92.95
58967;BME280;44744;51.894;5.080;2023-05-11T04:48:30;101575.45;;;12.48;92.82
58967;BME280;44744;51.894;5.080;2023-05-11T04:49:31;101578.22;;;12.49;92.94
58967;BME280;44744;51.894;5.080;2023-05-11T04:50:31;101576.77;;;12.49;92.74
58967;BME280;44744;51.894;5.080;2023-05-11T04:51:32;101576.73;;;12.50;92.89
58967;BME280;44744;51.894;5.080;2023-05-11T04:52:32;101577.63;;;12.50;92.87
58967;BME280;44744;51.894;5.080;2023-05-11T04:53:32;101581.20;;;12.50;92.83
58967;BME280;44744;51.894;5.080;2023-05-11T04:54:33;101584.86;;;12.51;92.87
58967;BME280;44744;51.894;5.080;2023-05-11T04:55:33;101582.23;;;12.51;92.84
58967;BME280;44744;51.894;5.080;2023-05-11T04:56:33;101583.13;;;12.50;92.91
58967;BME280;44744;51.894;5.080;2023-05-11T04:57:34;101582.91;;;12.51;92.87
58967;BME280;44744;51.894;5.080;2023-05-11T04:58:34;101582.40;;;12.50;92.79
58967;BME280;44744;51.894;5.080;2023-05-11T04:59:34;101583.88;;;12.49;92.60
58967;BME280;44744;51.894;5.080;2023-05-11T05:00:34;101584.11;;;12.49;92.74
58967;BME280;44744;51.894;5.080;2023-05-11T05:01:35;101585.73;;;12.48;92.78
58967;BME280;44744;51.894;5.080;2023-05-11T05:02:35;101585.92;;;12.48;92.70
58967;BME280;44744;51.894;5.080;2023-05-11T05:03:35;101586.28;;;12.47;92.82
58967;BME280;44744;51.894;5.080;2023-05-11T05:04:35;101584.98;;;12.49;92.90
58967;BME280;44744;51.894;5.080;2023-05-11T05:05:36;101587.27;;;12.49;92.75
58967;BME280;44744;51.894;5.080;2023-05-11T05:06:36;101588.91;;;12.48;92.73
58967;BME280;44744;51.894;5.080;2023-05-11T05:07:36;101589.52;;;12.47;92.69
58967;BME280;44744;51.894;5.080;2023-05-11T05:08:37;101588.10;;;12.46;92.74
58967;BME280;44744;51.894;5.080;2023-05-11T05:09:37;101592.89;;;12.46;92.75
58967;BME280;44744;51.894;5.080;2023-05-11T05:10:37;101596.45;;;12.46;92.93
58967;BME280;44744;51.894;5.080;2023-05-11T05:11:37;101592.04;;;12.46;92.88
58967;BME280;44744;51.894;5.080;2023-05-11T05:12:38;101594.77;;;12.44;92.74
58967;BME280;44744;51.894;5.080;2023-05-11T05:13:39;101597.37;;;12.42;92.88
58967;BME280;44744;51.894;5.080;2023-05-11T05:14:39;101595.36;;;12.40;92.97
58967;BME280;44744;51.894;5.080;2023-05-11T05:15:39;101597.14;;;12.40;92.95
58967;BME280;44744;51.894;5.080;2023-05-11T05:16:39;101597.96;;;12.38;92.92
58967;BME280;44744;51.894;5.080;2023-05-11T05:17:40;101598.17;;;12.37;93.19
58967;BME280;44744;51.894;5.080;2023-05-11T05:18:40;101595.66;;;12.37;93.28
58967;BME280;44744;51.894;5.080;2023-05-11T05:19:40;101600.48;;;12.37;93.50
58967;BME280;44744;51.894;5.080;2023-05-11T05:20:40;101604.36;;;12.37;93.34
58967;BME280;44744;51.894;5.080;2023-05-11T05:21:41;101605.22;;;12.38;93.54
58967;BME280;44744;51.894;5.080;2023-05-11T05:22:41;101604.48;;;12.39;93.54
58967;BME280;44744;51.894;5.080;2023-05-11T05:23:41;101604.44;;;12.39;93.48
58967;BME280;44744;51.894;5.080;2023-05-11T05:24:41;101607.07;;;12.39;93.43
58967;BME280;44744;51.894;5.080;2023-05-11T05:25:42;101605.48;;;12.39;93.47
58967;BME280;44744;51.894;5.080;2023-05-11T05:26:42;101603.89;;;12.39;93.39
58967;BME280;44744;51.894;5.080;2023-05-11T05:27:42;101606.41;;;12.39;93.36
58967;BME280;44744;51.894;5.080;2023-05-11T05:28:43;101608.22;;;12.38;93.49
58967;BME280;44744;51.894;5.080;2023-05-11T05:29:43;101610.23;;;12.37;93.58
58967;BME280;44744;51.894;5.080;2023-05-11T05:30:43;101606.09;;;12.38;93.62
58967;BME280;44744;51.894;5.080;2023-05-11T05:31:44;101611.80;;;12.38;93.46
58967;BME280;44744;51.894;5.080;2023-05-11T05:32:44;101611.63;;;12.37;93.45
58967;BME280;44744;51.894;5.080;2023-05-11T05:33:44;101611.42;;;12.38;93.85
58967;BME280;44744;51.894;5.080;2023-05-11T05:34:45;101612.63;;;12.39;93.73
58967;BME280;44744;51.894;5.080;2023-05-11T05:35:45;101610.34;;;12.38;93.79